createdAt,value
2022-12-31T00:02:19.759Z,22.82
2022-12-31T00:05:25.603Z,23.98
2022-12-31T00:08:32.171Z,23.67
2022-12-31T00:11:38.929Z,22.70
2022-12-31T00:14:44.385Z,23.42
2022-12-31T00:17:50.684Z,23.62
2022-12-31T00:20:56.249Z,23.62
2022-12-31T00:24:01.206Z,24.92
2022-12-31T00:27:06.454Z,23.15
2022-12-31T00:30:13.522Z,22.90
2022-12-31T00:33:19.731Z,23.47
2022-12-31T00:36:32.018Z,22.17
2022-12-31T00:39:37.976Z,22.30
2022-12-31T00:42:44.683Z,23.67
2022-12-31T00:45:51.970Z,22.10
2022-12-31T00:48:58.359Z,22.90
2022-12-31T00:52:03.498Z,23.57
2022-12-31T00:55:09.102Z,24.27
2022-12-31T00:58:16.033Z,23.90
2022-12-31T01:01:42.050Z,23.42
2022-12-31T01:04:48.509Z,23.35
2022-12-31T01:07:55.163Z,23.67
2022-12-31T01:11:23.388Z,22.17
2022-12-31T01:14:32.489Z,23.15
2022-12-31T01:17:37.952Z,24.20
2022-12-31T01:20:38.574Z,23.83
2022-12-31T01:23:45.493Z,24.70
2022-12-31T01:26:51.207Z,23.80
2022-12-31T01:29:57.190Z,23.07
2022-12-31T01:33:03.322Z,24.90
2022-12-31T01:36:08.807Z,25.77
2022-12-31T01:39:15.716Z,25.08
2022-12-31T01:42:21.015Z,26.15
2022-12-31T01:45:27.059Z,24.65
2022-12-31T01:48:39.087Z,24.72
2022-12-31T01:51:46.118Z,26.75
2022-12-31T01:54:55.981Z,26.17
2022-12-31T01:58:05.294Z,25.95
2022-12-31T02:01:11.747Z,25.55
2022-12-31T02:04:22.718Z,24.92
2022-12-31T02:07:28.900Z,25.60
2022-12-31T02:10:35.975Z,27.62
2022-12-31T02:13:43.709Z,26.42
2022-12-31T02:17:45.502Z,25.52
2022-12-31T02:21:36.422Z,24.52
2022-12-31T02:25:02.608Z,25.27
2022-12-31T02:28:28.437Z,26.70
2022-12-31T02:31:39.249Z,25.57
2022-12-31T02:35:08.414Z,25.72
2022-12-31T02:38:27.949Z,24.92
2022-12-31T02:41:52.280Z,24.98
2022-12-31T02:44:57.890Z,26.87
2022-12-31T02:48:39.812Z,25.88
2022-12-31T02:52:06.566Z,26.05
2022-12-31T02:55:24.058Z,25.55
2022-12-31T02:59:01.497Z,26.20
2022-12-31T03:02:22.305Z,25.95
2022-12-31T03:05:29.808Z,26.10
2022-12-31T03:08:41.331Z,27.82
2022-12-31T03:12:04.024Z,26.68
2022-12-31T03:15:11.915Z,27.02
2022-12-31T03:18:31.546Z,26.97
2022-12-31T03:21:54.928Z,25.70
2022-12-31T03:25:19.401Z,25.35
2022-12-31T03:28:28.835Z,25.72
2022-12-31T03:31:34.293Z,26.23
2022-12-31T03:34:39.095Z,24.98
2022-12-31T03:37:46.873Z,48.90
2022-12-31T03:41:01.407Z,28.05
2022-12-31T03:44:08.233Z,26.00
2022-12-31T03:47:13.630Z,26.33
2022-12-31T03:50:14.404Z,27.05
2022-12-31T03:53:20.092Z,26.85
2022-12-31T03:56:25.936Z,27.45
2022-12-31T03:59:31.862Z,27.02
2022-12-31T04:02:39.465Z,28.17
2022-12-31T04:05:45.977Z,28.85
2022-12-31T04:08:52.699Z,28.60
2022-12-31T04:12:01.521Z,29.70
2022-12-31T04:15:07.527Z,30.00
2022-12-31T04:18:14.187Z,28.67
2022-12-31T04:21:20.297Z,30.10
2022-12-31T04:24:26.024Z,31.15
2022-12-31T04:27:31.746Z,30.57
2022-12-31T04:30:38.275Z,32.85
2022-12-31T04:33:44.203Z,34.25
2022-12-31T04:36:49.924Z,33.25
2022-12-31T04:40:00.424Z,34.00
2022-12-31T04:43:05.622Z,33.55
2022-12-31T04:46:12.156Z,31.95
2022-12-31T04:49:17.269Z,31.62
2022-12-31T04:52:23.342Z,33.25
2022-12-31T04:55:29.687Z,32.78
2022-12-31T04:58:35.146Z,33.33
2022-12-31T05:01:44.417Z,30.20
2022-12-31T05:04:51.286Z,30.75
2022-12-31T05:07:56.842Z,28.40
2022-12-31T05:11:03.724Z,27.75
2022-12-31T05:14:10.143Z,27.10
2022-12-31T05:17:17.605Z,26.12
2022-12-31T05:20:24.689Z,28.02
2022-12-31T05:23:33.817Z,28.25
2022-12-31T05:26:39.803Z,24.98
2022-12-31T05:29:46.353Z,23.42
2022-12-31T05:32:52.211Z,23.15
2022-12-31T05:35:59.576Z,22.80
2022-12-31T05:39:04.440Z,23.07
2022-12-31T05:42:10.902Z,22.70
2022-12-31T05:45:19.331Z,22.80
2022-12-31T05:48:24.309Z,23.10
2022-12-31T05:51:30.755Z,22.77
2022-12-31T05:54:37.321Z,21.80
2022-12-31T05:57:43.792Z,21.75
2022-12-31T06:00:50.600Z,18.32
2022-12-31T06:03:56.293Z,20.37
2022-12-31T06:07:03.082Z,20.12
2022-12-31T06:10:09.333Z,19.50
2022-12-31T06:13:14.534Z,19.50
2022-12-31T06:16:23.491Z,18.98
2022-12-31T06:19:30.725Z,17.17
2022-12-31T06:22:36.843Z,20.48
2022-12-31T06:25:44.196Z,20.05
2022-12-31T06:28:49.878Z,20.25
2022-12-31T06:31:58.294Z,18.35
2022-12-31T06:35:05.828Z,19.85
2022-12-31T06:38:11.216Z,22.02
2022-12-31T06:41:21.950Z,20.10
2022-12-31T06:44:28.847Z,18.98
2022-12-31T06:47:35.003Z,18.23
2022-12-31T06:50:42.039Z,16.52
2022-12-31T06:53:47.198Z,17.25
2022-12-31T06:56:54.427Z,17.55
2022-12-31T07:00:00.235Z,18.92
2022-12-31T07:03:30.954Z,20.62
2022-12-31T07:06:47.461Z,19.17
2022-12-31T07:10:16.700Z,19.15
2022-12-31T07:13:39.061Z,18.35
2022-12-31T07:17:11.244Z,18.00
2022-12-31T07:20:31.860Z,17.67
2022-12-31T07:23:38.060Z,17.80
2022-12-31T07:27:22.156Z,19.90
2022-12-31T07:30:40.217Z,18.23
2022-12-31T07:34:07.031Z,17.15
2022-12-31T07:37:26.356Z,17.20
2022-12-31T07:41:00.576Z,18.32
2022-12-31T07:44:22.338Z,18.77
2022-12-31T07:47:36.264Z,21.25
2022-12-31T07:50:43.516Z,18.60
2022-12-31T07:53:48.540Z,18.37
2022-12-31T07:56:53.883Z,17.02
2022-12-31T08:00:23.143Z,16.45
2022-12-31T08:03:37.229Z,15.65
2022-12-31T08:10:29.726Z,14.35
2022-12-31T08:13:36.161Z,16.57
2022-12-31T08:16:46.681Z,17.23
2022-12-31T08:19:54.985Z,16.87
2022-12-31T08:23:26.205Z,18.57
2022-12-31T08:26:36.636Z,17.25
2022-12-31T08:29:58.033Z,16.20
2022-12-31T08:33:28.100Z,17.55
2022-12-31T08:37:02.297Z,16.70
2022-12-31T08:40:40.632Z,21.45
2022-12-31T08:44:06.761Z,19.90
2022-12-31T08:47:38.281Z,20.00
2022-12-31T08:50:42.696Z,17.27
2022-12-31T08:53:50.591Z,20.92
2022-12-31T08:57:30.470Z,20.02
2022-12-31T09:00:38.626Z,16.60
2022-12-31T09:04:27.310Z,17.10
2022-12-31T09:07:32.087Z,17.85
2022-12-31T09:10:51.958Z,17.12
2022-12-31T09:14:13.628Z,16.77
2022-12-31T09:17:59.148Z,18.57
2022-12-31T09:21:06.083Z,18.42
2022-12-31T09:24:11.908Z,18.37
2022-12-31T09:27:44.637Z,16.40
2022-12-31T09:31:18.391Z,18.35
2022-12-31T09:34:30.543Z,20.15
2022-12-31T09:38:06.537Z,16.40
2022-12-31T09:41:31.014Z,18.62
2022-12-31T09:44:56.881Z,21.25
2022-12-31T09:48:26.937Z,18.25
2022-12-31T09:51:46.413Z,20.80
2022-12-31T09:55:19.965Z,38.55
2022-12-31T09:58:53.738Z,27.07
2022-12-31T10:02:42.041Z,21.25
2022-12-31T10:06:22.060Z,20.85
2022-12-31T10:09:41.413Z,17.85
2022-12-31T10:13:34.465Z,16.42
2022-12-31T10:17:11.536Z,17.53
2022-12-31T10:20:45.129Z,25.62
2022-12-31T10:24:37.378Z,20.37
2022-12-31T10:28:20.818Z,19.42
2022-12-31T10:32:01.079Z,17.95
2022-12-31T10:35:37.983Z,17.70
2022-12-31T10:39:07.435Z,16.73
2022-12-31T10:42:24.565Z,16.17
2022-12-31T10:45:54.838Z,16.90
2022-12-31T10:49:26.235Z,15.50
2022-12-31T10:52:42.189Z,17.42
2022-12-31T10:56:14.243Z,15.85
2022-12-31T10:59:45.653Z,17.17
2022-12-31T11:02:59.072Z,17.98
2022-12-31T11:06:43.888Z,15.70
2022-12-31T11:10:25.755Z,14.18
2022-12-31T11:14:21.382Z,15.88
2022-12-31T11:17:50.469Z,14.23
2022-12-31T11:21:34.266Z,15.30
2022-12-31T11:25:18.533Z,15.65
2022-12-31T11:28:52.461Z,15.38
2022-12-31T11:32:09.893Z,16.75
2022-12-31T11:35:39.277Z,17.62
2022-12-31T11:38:55.046Z,14.07
2022-12-31T11:42:08.553Z,15.32
2022-12-31T11:46:00.676Z,17.85
2022-12-31T11:49:51.539Z,17.75
2022-12-31T11:53:24.435Z,16.70
2022-12-31T11:56:35.190Z,19.35
2022-12-31T11:59:43.716Z,19.32
2022-12-31T12:02:52.488Z,19.45
2022-12-31T12:05:58.720Z,16.65
2022-12-31T12:09:04.125Z,15.00
2022-12-31T12:12:16.201Z,15.25
2022-12-31T12:15:24.974Z,15.53
2022-12-31T12:18:47.854Z,15.20
2022-12-31T12:22:00.680Z,15.35
2022-12-31T12:25:20.540Z,16.37
2022-12-31T12:28:38.401Z,18.32
2022-12-31T12:31:43.089Z,15.03
2022-12-31T12:34:53.588Z,16.75
2022-12-31T12:38:01.734Z,17.40
2022-12-31T12:41:16.811Z,19.70
2022-12-31T12:44:25.166Z,17.05
2022-12-31T12:47:31.744Z,23.42
2022-12-31T12:50:40.254Z,18.50
2022-12-31T12:54:00.572Z,16.97
2022-12-31T12:57:23.670Z,17.67
2022-12-31T13:01:08.129Z,17.77
2022-12-31T13:04:41.494Z,20.15
2022-12-31T13:08:09.145Z,23.15
2022-12-31T13:11:22.892Z,20.37
2022-12-31T13:14:48.273Z,18.92
2022-12-31T13:18:20.175Z,17.70
2022-12-31T13:21:57.370Z,16.20
2022-12-31T13:25:21.809Z,15.08
2022-12-31T13:28:30.370Z,16.67
2022-12-31T13:31:44.713Z,17.62
2022-12-31T13:34:56.393Z,18.75
2022-12-31T13:38:05.589Z,20.40
2022-12-31T13:41:37.328Z,18.95
2022-12-31T13:45:02.739Z,16.95
2022-12-31T13:48:15.452Z,17.27
2022-12-31T13:51:31.730Z,16.20
2022-12-31T13:55:08.039Z,16.50
2022-12-31T13:58:24.065Z,19.10
2022-12-31T14:01:41.366Z,20.25
2022-12-31T14:04:53.432Z,19.48
2022-12-31T14:08:09.278Z,19.80
2022-12-31T14:11:45.100Z,18.37
2022-12-31T14:15:02.015Z,24.27
2022-12-31T14:18:43.274Z,19.23
2022-12-31T14:22:08.708Z,17.15
2022-12-31T14:25:13.587Z,17.87
2022-12-31T14:28:20.813Z,17.67
2022-12-31T14:31:34.458Z,15.60
2022-12-31T14:34:59.466Z,14.00
2022-12-31T14:38:16.035Z,14.28
2022-12-31T14:42:02.127Z,15.95
2022-12-31T14:45:47.832Z,16.30
2022-12-31T14:49:32.068Z,14.50
2022-12-31T14:52:41.475Z,13.25
2022-12-31T14:55:53.030Z,13.93
2022-12-31T14:59:02.035Z,15.75
2022-12-31T15:02:08.781Z,16.70
2022-12-31T15:05:28.761Z,16.30
2022-12-31T15:09:08.925Z,16.90
2022-12-31T15:12:25.513Z,17.10
2022-12-31T15:16:00.617Z,18.92
2022-12-31T15:19:11.991Z,19.17
2022-12-31T15:22:56.813Z,16.73
2022-12-31T15:26:06.433Z,16.73
2022-12-31T15:29:24.226Z,17.82
2022-12-31T15:32:39.351Z,15.65
2022-12-31T15:35:46.998Z,18.90
2022-12-31T15:38:53.777Z,15.80
2022-12-31T15:45:17.639Z,16.85
2022-12-31T15:51:37.617Z,15.40
2022-12-31T15:55:01.057Z,15.00
2022-12-31T15:58:09.861Z,15.60
2022-12-31T16:01:37.362Z,15.28
2022-12-31T16:04:47.462Z,16.30
2022-12-31T16:07:54.085Z,16.35
2022-12-31T16:11:01.569Z,16.15
2022-12-31T16:14:08.615Z,16.75
2022-12-31T16:17:14.737Z,16.12
2022-12-31T16:20:39.510Z,17.55
2022-12-31T16:23:45.574Z,15.18
2022-12-31T16:27:02.049Z,14.68
2022-12-31T16:30:21.996Z,14.78
2022-12-31T16:33:29.194Z,16.75
2022-12-31T16:36:37.994Z,16.27
2022-12-31T16:39:48.524Z,19.00
2022-12-31T16:42:56.150Z,16.95
2022-12-31T16:46:01.901Z,16.62
2022-12-31T16:49:14.332Z,19.10
2022-12-31T16:52:23.162Z,19.32
2022-12-31T16:55:34.017Z,19.50
2022-12-31T16:58:48.910Z,18.67
2022-12-31T17:01:56.399Z,19.42
2022-12-31T17:05:07.779Z,19.75
2022-12-31T17:08:12.719Z,18.57
2022-12-31T17:11:23.198Z,21.23
2022-12-31T17:14:29.839Z,21.25
2022-12-31T17:17:40.198Z,19.65
2022-12-31T17:20:47.176Z,19.48
2022-12-31T17:23:53.682Z,20.70
2022-12-31T17:27:00.013Z,21.05
2022-12-31T17:30:06.908Z,19.32
2022-12-31T17:33:25.859Z,20.43
2022-12-31T17:36:42.141Z,21.82
2022-12-31T17:40:49.408Z,21.12
2022-12-31T17:43:16.119Z,20.32
2022-12-31T17:46:28.989Z,20.52
2022-12-31T17:49:34.941Z,18.60
2022-12-31T17:52:40.613Z,18.98
2022-12-31T17:55:49.071Z,19.80
2022-12-31T17:58:59.493Z,20.08
2022-12-31T18:02:06.303Z,19.93
2022-12-31T18:05:13.635Z,21.07
2022-12-31T18:08:19.961Z,21.42
2022-12-31T18:11:32.619Z,20.80
2022-12-31T18:14:39.811Z,20.82
2022-12-31T18:17:44.987Z,21.35
2022-12-31T18:20:51.417Z,20.02
2022-12-31T18:27:03.912Z,20.95
2022-12-31T18:30:13.317Z,22.98
2022-12-31T18:33:18.168Z,20.40
2022-12-31T18:36:30.993Z,23.50
2022-12-31T18:39:38.745Z,23.50
2022-12-31T18:42:45.266Z,23.35
2022-12-31T18:45:53.791Z,20.43
2022-12-31T18:49:00.178Z,21.82
2022-12-31T18:52:05.975Z,21.35
2022-12-31T18:55:13.907Z,22.48
2022-12-31T18:58:19.379Z,21.02
2022-12-31T19:01:49.349Z,22.67
2022-12-31T19:04:58.436Z,22.70
2022-12-31T19:08:05.715Z,23.32
2022-12-31T19:11:13.087Z,21.75
2022-12-31T19:14:22.136Z,22.40
2022-12-31T19:17:30.424Z,22.98
2022-12-31T19:20:35.672Z,23.42
2022-12-31T19:23:43.062Z,24.07
2022-12-31T19:26:51.832Z,24.27
2022-12-31T19:29:58.511Z,24.32
2022-12-31T19:33:06.259Z,24.52
2022-12-31T19:36:14.227Z,23.00
2022-12-31T19:39:20.578Z,25.12
2022-12-31T19:42:29.020Z,25.85
2022-12-31T19:45:39.560Z,24.23
2022-12-31T19:48:46.863Z,24.15
2022-12-31T19:51:54.064Z,23.65
2022-12-31T19:55:00.759Z,22.70
2022-12-31T19:58:08.707Z,23.65
2022-12-31T20:01:16.205Z,23.73
2022-12-31T20:04:23.238Z,22.77
2022-12-31T20:07:28.845Z,22.82
2022-12-31T20:10:35.073Z,23.57
2022-12-31T20:13:41.573Z,22.60
2022-12-31T20:16:47.518Z,24.02
2022-12-31T20:19:56.257Z,24.25
2022-12-31T20:23:02.477Z,25.60
2022-12-31T20:26:14.704Z,25.17
2022-12-31T20:29:21.060Z,26.80
2022-12-31T20:32:26.284Z,27.25
2022-12-31T20:35:31.025Z,25.75
2022-12-31T20:38:36.077Z,25.02
2022-12-31T20:41:42.235Z,26.07
2022-12-31T20:44:49.189Z,26.35
2022-12-31T20:47:56.462Z,25.50
2022-12-31T20:51:11.684Z,26.37
2022-12-31T20:54:21.055Z,26.05
2022-12-31T20:57:31.691Z,27.60
2022-12-31T21:00:34.295Z,25.72
2022-12-31T21:06:50.871Z,26.75
2022-12-31T21:09:57.785Z,26.35
2022-12-31T21:13:04.305Z,26.68
2022-12-31T21:16:11.383Z,25.45
2022-12-31T21:19:16.573Z,27.27
2022-12-31T21:22:22.653Z,27.80
2022-12-31T21:25:29.302Z,26.80
2022-12-31T21:28:33.673Z,27.40
2022-12-31T21:31:41.031Z,26.42
2022-12-31T21:35:06.413Z,28.40
2022-12-31T21:38:00.835Z,27.75
2022-12-31T21:41:05.170Z,29.20
2022-12-31T21:44:11.408Z,32.63
2022-12-31T21:47:39.781Z,38.13
2022-12-31T21:50:45.387Z,33.02
2022-12-31T21:53:51.996Z,31.77
2022-12-31T21:56:57.190Z,32.20
2022-12-31T22:00:44.464Z,31.52
2022-12-31T22:03:38.243Z,28.38
2022-12-31T22:06:46.663Z,28.95
2022-12-31T22:09:52.168Z,27.82
2022-12-31T22:12:59.453Z,27.65
2022-12-31T22:16:09.795Z,28.23
2022-12-31T22:19:15.465Z,27.37
2022-12-31T22:22:22.979Z,27.58
2022-12-31T22:25:30.672Z,26.52
2022-12-31T22:28:39.467Z,26.70
2022-12-31T22:31:46.826Z,33.83
2022-12-31T22:34:53.636Z,32.30
2022-12-31T22:38:09.835Z,32.03
2022-12-31T22:41:25.843Z,30.43
2022-12-31T22:44:32.024Z,29.35
2022-12-31T22:47:38.898Z,28.12
2022-12-31T22:50:47.778Z,28.75
2022-12-31T22:53:54.861Z,30.37
2022-12-31T22:57:02.672Z,28.65
2022-12-31T23:00:08.659Z,27.98
2022-12-31T23:03:15.034Z,29.02
2022-12-31T23:06:20.938Z,26.95
2022-12-31T23:09:46.828Z,26.80
2022-12-31T23:12:51.946Z,27.65
2022-12-31T23:16:18.265Z,34.95
2022-12-31T23:19:43.085Z,31.02
2022-12-31T23:23:09.019Z,31.12
2022-12-31T23:26:18.306Z,30.65
2022-12-31T23:29:24.327Z,30.82
2022-12-31T23:32:31.371Z,29.35
2022-12-31T23:35:37.513Z,30.12
2022-12-31T23:38:42.921Z,30.08
2022-12-31T23:41:48.466Z,28.42
2022-12-31T23:44:53.819Z,29.67
2022-12-31T23:48:00.697Z,29.57
2022-12-31T23:51:07.730Z,30.60
2022-12-31T23:54:13.632Z,30.40
2022-12-31T23:57:19.406Z,28.23
